sensor_id;sensor_type;location;lat;lon;timestamp;P1;durP1;ratioP1;P2;durP2;ratioP2
71696;SDS011;68167;59.120;37.898;2023-12-04T00:00:12;7.70;;;4.17;;
71696;SDS011;68167;59.120;37.898;2023-12-04T00:02:40;6.83;;;3.40;;
71696;SDS011;68167;59.120;37.898;2023-12-04T00:05:06;9.20;;;4.03;;
71696;SDS011;68167;59.120;37.898;2023-12-04T00:07:33;6.50;;;3.17;;
71696;SDS011;68167;59.120;37.898;2023-12-04T00:10:00;7.03;;;3.50;;
71696;SDS011;68167;59.120;37.898;2023-12-04T00:12:27;8.57;;;3.70;;
71696;SDS011;68167;59.120;37.898;2023-12-04T00:14:53;8.67;;;3.80;;
71696;SDS011;68167;59.120;37.898;2023-12-04T00:17:19;7.23;;;3.60;;
71696;SDS011;68167;59.120;37.898;2023-12-04T00:19:46;6.53;;;3.53;;
71696;SDS011;68167;59.120;37.898;2023-12-04T00:22:12;8.63;;;3.70;;
71696;SDS011;68167;59.120;37.898;2023-12-04T00:24:39;8.27;;;3.67;;
71696;SDS011;68167;59.120;37.898;2023-12-04T00:27:05;6.53;;;3.20;;
71696;SDS011;68167;59.120;37.898;2023-12-04T00:29:31;7.37;;;3.23;;
71696;SDS011;68167;59.120;37.898;2023-12-04T00:31:58;7.80;;;3.23;;
71696;SDS011;68167;59.120;37.898;2023-12-04T00:34:24;6.23;;;3.23;;
71696;SDS011;68167;59.120;37.898;2023-12-04T00:36:50;6.17;;;3.37;;
71696;SDS011;68167;59.120;37.898;2023-12-04T00:39:17;6.80;;;3.00;;
71696;SDS011;68167;59.120;37.898;2023-12-04T00:41:43;8.40;;;3.53;;
71696;SDS011;68167;59.120;37.898;2023-12-04T00:44:10;7.67;;;3.23;;
71696;SDS011;68167;59.120;37.898;2023-12-04T00:46:36;6.83;;;3.37;;
71696;SDS011;68167;59.120;37.898;2023-12-04T00:49:02;6.40;;;3.27;;
71696;SDS011;68167;59.120;37.898;2023-12-04T00:51:31;8.07;;;3.63;;
71696;SDS011;68167;59.120;37.898;2023-12-04T00:54:03;7.33;;;3.20;;
71696;SDS011;68167;59.120;37.898;2023-12-04T00:56:29;5.87;;;3.10;;
71696;SDS011;68167;59.120;37.898;2023-12-04T00:58:56;7.43;;;3.20;;
71696;SDS011;68167;59.120;37.898;2023-12-04T01:01:22;5.60;;;3.03;;
71696;SDS011;68167;59.120;37.898;2023-12-04T01:03:49;7.57;;;3.70;;
71696;SDS011;68167;59.120;37.898;2023-12-04T01:06:22;8.63;;;3.43;;
71696;SDS011;68167;59.120;37.898;2023-12-04T01:08:49;6.73;;;3.70;;
71696;SDS011;68167;59.120;37.898;2023-12-04T01:11:17;7.83;;;3.47;;
71696;SDS011;68167;59.120;37.898;2023-12-04T01:13:45;10.20;;;3.30;;
71696;SDS011;68167;59.120;37.898;2023-12-04T01:16:11;6.70;;;3.60;;
71696;SDS011;68167;59.120;37.898;2023-12-04T01:18:38;6.20;;;3.40;;
71696;SDS011;68167;59.120;37.898;2023-12-04T01:21:04;7.07;;;3.67;;
71696;SDS011;68167;59.120;37.898;2023-12-04T01:23:31;8.17;;;3.30;;
71696;SDS011;68167;59.120;37.898;2023-12-04T01:25:58;8.87;;;2.97;;
71696;SDS011;68167;59.120;37.898;2023-12-04T01:28:24;5.60;;;2.87;;
71696;SDS011;68167;59.120;37.898;2023-12-04T01:30:51;7.57;;;3.60;;
71696;SDS011;68167;59.120;37.898;2023-12-04T01:33:17;6.03;;;3.70;;
71696;SDS011;68167;59.120;37.898;2023-12-04T01:35:44;8.30;;;3.10;;
71696;SDS011;68167;59.120;37.898;2023-12-04T01:38:10;6.40;;;3.07;;
71696;SDS011;68167;59.120;37.898;2023-12-04T01:40:37;6.50;;;3.37;;
71696;SDS011;68167;59.120;37.898;2023-12-04T01:43:03;5.80;;;3.17;;
71696;SDS011;68167;59.120;37.898;2023-12-04T01:45:30;7.37;;;3.50;;
71696;SDS011;68167;59.120;37.898;2023-12-04T01:47:56;7.33;;;3.50;;
71696;SDS011;68167;59.120;37.898;2023-12-04T01:50:24;6.63;;;3.23;;
71696;SDS011;68167;59.120;37.898;2023-12-04T01:52:51;6.50;;;3.00;;
71696;SDS011;68167;59.120;37.898;2023-12-04T01:55:19;8.07;;;2.70;;
71696;SDS011;68167;59.120;37.898;2023-12-04T01:57:47;6.60;;;3.13;;
71696;SDS011;68167;59.120;37.898;2023-12-04T02:00:14;6.23;;;3.03;;
71696;SDS011;68167;59.120;37.898;2023-12-04T02:02:41;6.23;;;2.83;;
71696;SDS011;68167;59.120;37.898;2023-12-04T02:05:08;6.40;;;3.20;;
71696;SDS011;68167;59.120;37.898;2023-12-04T02:07:35;7.23;;;3.23;;
71696;SDS011;68167;59.120;37.898;2023-12-04T02:10:05;8.50;;;3.70;;
71696;SDS011;68167;59.120;37.898;2023-12-04T02:12:33;6.97;;;3.33;;
71696;SDS011;68167;59.120;37.898;2023-12-04T02:15:00;8.20;;;3.70;;
71696;SDS011;68167;59.120;37.898;2023-12-04T02:17:33;6.20;;;3.07;;
71696;SDS011;68167;59.120;37.898;2023-12-04T02:20:01;7.73;;;3.43;;
71696;SDS011;68167;59.120;37.898;2023-12-04T02:22:29;6.17;;;3.17;;
71696;SDS011;68167;59.120;37.898;2023-12-04T02:24:57;6.43;;;3.13;;
71696;SDS011;68167;59.120;37.898;2023-12-04T02:27:33;8.80;;;3.47;;
71696;SDS011;68167;59.120;37.898;2023-12-04T02:30:07;8.13;;;3.43;;
71696;SDS011;68167;59.120;37.898;2023-12-04T02:32:38;6.07;;;3.00;;
71696;SDS011;68167;59.120;37.898;2023-12-04T02:35:11;6.80;;;3.07;;
71696;SDS011;68167;59.120;37.898;2023-12-04T02:37:40;6.20;;;2.80;;
71696;SDS011;68167;59.120;37.898;2023-12-04T02:40:07;7.23;;;3.23;;
71696;SDS011;68167;59.120;37.898;2023-12-04T02:42:34;7.03;;;3.07;;
71696;SDS011;68167;59.120;37.898;2023-12-04T02:45:01;7.63;;;3.30;;
71696;SDS011;68167;59.120;37.898;2023-12-04T02:47:30;7.90;;;3.13;;
71696;SDS011;68167;59.120;37.898;2023-12-04T02:49:56;5.93;;;3.03;;
71696;SDS011;68167;59.120;37.898;2023-12-04T02:52:23;6.80;;;3.23;;
71696;SDS011;68167;59.120;37.898;2023-12-04T02:54:49;5.37;;;3.10;;
71696;SDS011;68167;59.120;37.898;2023-12-04T02:57:16;6.77;;;3.13;;
71696;SDS011;68167;59.120;37.898;2023-12-04T02:59:42;6.90;;;3.20;;
71696;SDS011;68167;59.120;37.898;2023-12-04T03:02:09;6.47;;;3.20;;
71696;SDS011;68167;59.120;37.898;2023-12-04T03:04:35;7.93;;;3.20;;
71696;SDS011;68167;59.120;37.898;2023-12-04T03:07:02;6.97;;;3.10;;
71696;SDS011;68167;59.120;37.898;2023-12-04T03:09:29;7.77;;;3.50;;
71696;SDS011;68167;59.120;37.898;2023-12-04T03:11:55;7.60;;;3.10;;
71696;SDS011;68167;59.120;37.898;2023-12-04T03:14:21;7.77;;;3.40;;
71696;SDS011;68167;59.120;37.898;2023-12-04T03:16:49;7.80;;;2.93;;
71696;SDS011;68167;59.120;37.898;2023-12-04T03:19:16;8.63;;;3.20;;
71696;SDS011;68167;59.120;37.898;2023-12-04T03:21:42;6.93;;;3.53;;
71696;SDS011;68167;59.120;37.898;2023-12-04T03:24:08;4.57;;;2.67;;
71696;SDS011;68167;59.120;37.898;2023-12-04T03:26:35;7.60;;;3.43;;
71696;SDS011;68167;59.120;37.898;2023-12-04T03:29:01;6.93;;;3.43;;
71696;SDS011;68167;59.120;37.898;2023-12-04T03:31:28;7.30;;;3.50;;
71696;SDS011;68167;59.120;37.898;2023-12-04T03:33:55;8.43;;;3.63;;
71696;SDS011;68167;59.120;37.898;2023-12-04T03:36:21;8.87;;;3.63;;
71696;SDS011;68167;59.120;37.898;2023-12-04T03:38:48;7.67;;;3.20;;
71696;SDS011;68167;59.120;37.898;2023-12-04T03:41:15;8.70;;;3.67;;
71696;SDS011;68167;59.120;37.898;2023-12-04T03:43:42;6.07;;;2.90;;
71696;SDS011;68167;59.120;37.898;2023-12-04T03:46:08;8.57;;;3.57;;
71696;SDS011;68167;59.120;37.898;2023-12-04T03:48:35;6.80;;;3.27;;
71696;SDS011;68167;59.120;37.898;2023-12-04T03:51:02;6.33;;;3.13;;
71696;SDS011;68167;59.120;37.898;2023-12-04T03:53:28;7.93;;;3.40;;
71696;SDS011;68167;59.120;37.898;2023-12-04T03:55:57;7.50;;;3.30;;
71696;SDS011;68167;59.120;37.898;2023-12-04T03:58:24;7.90;;;3.50;;
71696;SDS011;68167;59.120;37.898;2023-12-04T04:00:53;6.13;;;3.27;;
71696;SDS011;68167;59.120;37.898;2023-12-04T04:03:20;4.97;;;3.03;;
71696;SDS011;68167;59.120;37.898;2023-12-04T04:05:46;6.70;;;3.70;;
71696;SDS011;68167;59.120;37.898;2023-12-04T04:08:13;6.80;;;3.40;;
71696;SDS011;68167;59.120;37.898;2023-12-04T04:10:39;7.67;;;3.50;;
71696;SDS011;68167;59.120;37.898;2023-12-04T04:13:05;7.53;;;3.33;;
71696;SDS011;68167;59.120;37.898;2023-12-04T04:15:32;7.33;;;3.03;;
71696;SDS011;68167;59.120;37.898;2023-12-04T04:17:58;6.27;;;3.60;;
71696;SDS011;68167;59.120;37.898;2023-12-04T04:20:25;7.27;;;3.60;;
71696;SDS011;68167;59.120;37.898;2023-12-04T04:22:51;8.77;;;3.57;;
71696;SDS011;68167;59.120;37.898;2023-12-04T04:25:19;7.77;;;3.57;;
71696;SDS011;68167;59.120;37.898;2023-12-04T04:27:47;7.73;;;3.30;;
71696;SDS011;68167;59.120;37.898;2023-12-04T04:30:14;8.23;;;3.47;;
71696;SDS011;68167;59.120;37.898;2023-12-04T04:32:40;8.10;;;3.87;;
71696;SDS011;68167;59.120;37.898;2023-12-04T04:35:07;8.07;;;3.77;;
71696;SDS011;68167;59.120;37.898;2023-12-04T04:37:34;9.63;;;4.03;;
71696;SDS011;68167;59.120;37.898;2023-12-04T04:40:01;9.57;;;3.77;;
71696;SDS011;68167;59.120;37.898;2023-12-04T04:42:30;8.80;;;4.40;;
71696;SDS011;68167;59.120;37.898;2023-12-04T04:44:57;7.63;;;4.00;;
71696;SDS011;68167;59.120;37.898;2023-12-04T04:47:23;9.80;;;4.17;;
71696;SDS011;68167;59.120;37.898;2023-12-04T04:49:50;9.83;;;4.40;;
71696;SDS011;68167;59.120;37.898;2023-12-04T04:52:16;10.23;;;3.80;;
71696;SDS011;68167;59.120;37.898;2023-12-04T04:54:43;9.70;;;4.23;;
71696;SDS011;68167;59.120;37.898;2023-12-04T04:57:09;9.47;;;3.87;;
71696;SDS011;68167;59.120;37.898;2023-12-04T04:59:36;9.53;;;4.13;;
71696;SDS011;68167;59.120;37.898;2023-12-04T05:02:02;9.83;;;4.20;;
71696;SDS011;68167;59.120;37.898;2023-12-04T05:04:29;7.60;;;3.60;;
71696;SDS011;68167;59.120;37.898;2023-12-04T05:06:56;7.67;;;4.00;;
71696;SDS011;68167;59.120;37.898;2023-12-04T05:09:22;11.47;;;4.50;;
71696;SDS011;68167;59.120;37.898;2023-12-04T05:11:49;10.57;;;4.40;;
71696;SDS011;68167;59.120;37.898;2023-12-04T05:14:15;13.60;;;4.40;;
71696;SDS011;68167;59.120;37.898;2023-12-04T05:16:42;9.27;;;4.37;;
71696;SDS011;68167;59.120;37.898;2023-12-04T05:19:08;9.73;;;4.20;;
71696;SDS011;68167;59.120;37.898;2023-12-04T05:21:35;8.43;;;4.17;;
71696;SDS011;68167;59.120;37.898;2023-12-04T05:24:01;10.97;;;4.67;;
71696;SDS011;68167;59.120;37.898;2023-12-04T05:26:28;9.87;;;3.80;;
71696;SDS011;68167;59.120;37.898;2023-12-04T05:28:54;9.17;;;3.97;;
71696;SDS011;68167;59.120;37.898;2023-12-04T05:31:20;9.50;;;3.70;;
71696;SDS011;68167;59.120;37.898;2023-12-04T05:33:47;8.50;;;4.17;;
71696;SDS011;68167;59.120;37.898;2023-12-04T05:36:13;8.93;;;3.60;;
71696;SDS011;68167;59.120;37.898;2023-12-04T05:38:40;9.40;;;3.53;;
71696;SDS011;68167;59.120;37.898;2023-12-04T05:41:07;10.80;;;4.80;;
71696;SDS011;68167;59.120;37.898;2023-12-04T05:43:33;12.50;;;4.30;;
71696;SDS011;68167;59.120;37.898;2023-12-04T05:46:00;7.30;;;3.47;;
71696;SDS011;68167;59.120;37.898;2023-12-04T05:48:26;10.47;;;4.63;;
71696;SDS011;68167;59.120;37.898;2023-12-04T05:50:53;10.47;;;3.93;;
71696;SDS011;68167;59.120;37.898;2023-12-04T05:53:19;8.60;;;4.20;;
71696;SDS011;68167;59.120;37.898;2023-12-04T05:55:46;8.80;;;4.43;;
71696;SDS011;68167;59.120;37.898;2023-12-04T05:58:12;10.90;;;4.53;;
71696;SDS011;68167;59.120;37.898;2023-12-04T06:00:39;9.07;;;4.17;;
71696;SDS011;68167;59.120;37.898;2023-12-04T06:03:06;7.13;;;3.70;;
71696;SDS011;68167;59.120;37.898;2023-12-04T06:05:33;12.97;;;4.83;;
71696;SDS011;68167;59.120;37.898;2023-12-04T06:08:05;11.13;;;3.97;;
71696;SDS011;68167;59.120;37.898;2023-12-04T06:10:31;10.80;;;4.60;;
71696;SDS011;68167;59.120;37.898;2023-12-04T06:12:59;7.83;;;3.67;;
71696;SDS011;68167;59.120;37.898;2023-12-04T06:15:26;9.93;;;4.30;;
71696;SDS011;68167;59.120;37.898;2023-12-04T06:17:53;8.97;;;4.30;;
71696;SDS011;68167;59.120;37.898;2023-12-04T06:20:19;9.03;;;3.80;;
71696;SDS011;68167;59.120;37.898;2023-12-04T06:22:46;11.17;;;4.50;;
71696;SDS011;68167;59.120;37.898;2023-12-04T06:25:13;10.43;;;4.80;;
71696;SDS011;68167;59.120;37.898;2023-12-04T06:27:40;10.10;;;3.97;;
71696;SDS011;68167;59.120;37.898;2023-12-04T06:30:07;11.73;;;4.50;;
71696;SDS011;68167;59.120;37.898;2023-12-04T06:32:33;9.20;;;4.43;;
71696;SDS011;68167;59.120;37.898;2023-12-04T06:35:00;9.90;;;4.27;;
71696;SDS011;68167;59.120;37.898;2023-12-04T06:37:29;12.57;;;4.60;;
71696;SDS011;68167;59.120;37.898;2023-12-04T06:39:56;9.43;;;3.90;;
71696;SDS011;68167;59.120;37.898;2023-12-04T06:42:26;11.53;;;4.47;;
71696;SDS011;68167;59.120;37.898;2023-12-04T06:44:52;13.13;;;4.50;;
71696;SDS011;68167;59.120;37.898;2023-12-04T06:47:21;13.47;;;5.17;;
71696;SDS011;68167;59.120;37.898;2023-12-04T06:49:49;11.33;;;4.77;;
71696;SDS011;68167;59.120;37.898;2023-12-04T06:52:16;11.03;;;5.10;;
71696;SDS011;68167;59.120;37.898;2023-12-04T06:54:42;13.03;;;5.50;;
71696;SDS011;68167;59.120;37.898;2023-12-04T06:57:09;13.60;;;4.60;;
71696;SDS011;68167;59.120;37.898;2023-12-04T06:59:35;13.93;;;5.20;;
71696;SDS011;68167;59.120;37.898;2023-12-04T07:02:02;9.07;;;4.50;;
71696;SDS011;68167;59.120;37.898;2023-12-04T07:04:29;10.27;;;4.27;;
71696;SDS011;68167;59.120;37.898;2023-12-04T07:06:56;14.33;;;4.77;;
71696;SDS011;68167;59.120;37.898;2023-12-04T07:09:24;8.73;;;4.90;;
71696;SDS011;68167;59.120;37.898;2023-12-04T07:11:50;9.87;;;4.70;;
71696;SDS011;68167;59.120;37.898;2023-12-04T07:14:16;10.27;;;4.67;;
71696;SDS011;68167;59.120;37.898;2023-12-04T07:16:43;13.90;;;4.90;;
71696;SDS011;68167;59.120;37.898;2023-12-04T07:19:10;14.27;;;4.87;;
71696;SDS011;68167;59.120;37.898;2023-12-04T07:21:37;9.97;;;4.23;;
71696;SDS011;68167;59.120;37.898;2023-12-04T07:24:04;13.03;;;4.93;;
71696;SDS011;68167;59.120;37.898;2023-12-04T07:26:33;10.93;;;4.90;;
71696;SDS011;68167;59.120;37.898;2023-12-04T07:29:01;11.77;;;5.07;;
71696;SDS011;68167;59.120;37.898;2023-12-04T07:31:28;11.20;;;4.10;;
71696;SDS011;68167;59.120;37.898;2023-12-04T07:33:55;12.50;;;4.43;;
71696;SDS011;68167;59.120;37.898;2023-12-04T07:36:22;9.30;;;4.37;;
71696;SDS011;68167;59.120;37.898;2023-12-04T07:38:50;12.47;;;4.50;;
71696;SDS011;68167;59.120;37.898;2023-12-04T07:41:17;9.47;;;3.83;;
71696;SDS011;68167;59.120;37.898;2023-12-04T07:43:44;10.03;;;4.70;;
71696;SDS011;68167;59.120;37.898;2023-12-04T07:46:11;9.53;;;4.77;;
71696;SDS011;68167;59.120;37.898;2023-12-04T07:48:37;10.33;;;3.77;;
71696;SDS011;68167;59.120;37.898;2023-12-04T07:51:06;14.23;;;4.87;;
71696;SDS011;68167;59.120;37.898;2023-12-04T07:53:33;10.70;;;4.27;;
71696;SDS011;68167;59.120;37.898;2023-12-04T07:56:00;7.07;;;3.47;;
71696;SDS011;68167;59.120;37.898;2023-12-04T07:58:29;11.87;;;4.90;;
71696;SDS011;68167;59.120;37.898;2023-12-04T08:00:57;10.13;;;4.53;;
71696;SDS011;68167;59.120;37.898;2023-12-04T08:03:24;14.27;;;5.20;;
71696;SDS011;68167;59.120;37.898;2023-12-04T08:05:51;11.60;;;5.47;;
71696;SDS011;68167;59.120;37.898;2023-12-04T08:08:18;13.60;;;5.13;;
71696;SDS011;68167;59.120;37.898;2023-12-04T08:10:45;8.57;;;4.33;;
71696;SDS011;68167;59.120;37.898;2023-12-04T08:13:12;11.93;;;4.80;;
71696;SDS011;68167;59.120;37.898;2023-12-04T08:15:38;10.87;;;4.87;;
71696;SDS011;68167;59.120;37.898;2023-12-04T08:18:05;13.60;;;4.43;;
71696;SDS011;68167;59.120;37.898;2023-12-04T08:20:32;9.90;;;4.63;;
71696;SDS011;68167;59.120;37.898;2023-12-04T08:22:59;8.67;;;4.70;;
71696;SDS011;68167;59.120;37.898;2023-12-04T08:25:25;10.00;;;4.80;;
71696;SDS011;68167;59.120;37.898;2023-12-04T08:27:52;11.87;;;4.97;;
71696;SDS011;68167;59.120;37.898;2023-12-04T08:30:19;17.33;;;5.70;;
71696;SDS011;68167;59.120;37.898;2023-12-04T08:32:45;10.80;;;4.50;;
71696;SDS011;68167;59.120;37.898;2023-12-04T08:35:13;10.17;;;4.13;;
71696;SDS011;68167;59.120;37.898;2023-12-04T08:37:40;12.43;;;5.30;;
71696;SDS011;68167;59.120;37.898;2023-12-04T08:40:06;14.20;;;5.00;;
71696;SDS011;68167;59.120;37.898;2023-12-04T08:42:34;10.30;;;5.00;;
71696;SDS011;68167;59.120;37.898;2023-12-04T08:45:04;10.83;;;4.60;;
71696;SDS011;68167;59.120;37.898;2023-12-04T08:47:35;10.73;;;4.70;;
71696;SDS011;68167;59.120;37.898;2023-12-04T08:50:01;9.13;;;4.10;;
71696;SDS011;68167;59.120;37.898;2023-12-04T08:52:30;9.57;;;4.70;;
71696;SDS011;68167;59.120;37.898;2023-12-04T08:54:57;10.30;;;4.50;;
71696;SDS011;68167;59.120;37.898;2023-12-04T08:57:23;9.13;;;4.40;;
71696;SDS011;68167;59.120;37.898;2023-12-04T08:59:50;6.43;;;3.80;;
71696;SDS011;68167;59.120;37.898;2023-12-04T09:02:16;10.43;;;4.73;;
71696;SDS011;68167;59.120;37.898;2023-12-04T09:04:43;9.97;;;4.53;;
71696;SDS011;68167;59.120;37.898;2023-12-04T09:07:09;10.70;;;6.40;;
71696;SDS011;68167;59.120;37.898;2023-12-04T09:09:36;10.50;;;4.60;;
71696;SDS011;68167;59.120;37.898;2023-12-04T09:12:02;9.70;;;4.53;;
71696;SDS011;68167;59.120;37.898;2023-12-04T09:14:29;10.40;;;4.37;;
71696;SDS011;68167;59.120;37.898;2023-12-04T09:16:55;10.60;;;4.50;;
71696;SDS011;68167;59.120;37.898;2023-12-04T09:19:22;10.17;;;4.87;;
71696;SDS011;68167;59.120;37.898;2023-12-04T09:21:48;11.30;;;4.50;;
71696;SDS011;68167;59.120;37.898;2023-12-04T09:24:15;10.87;;;5.00;;
71696;SDS011;68167;59.120;37.898;2023-12-04T09:26:41;12.57;;;6.97;;
71696;SDS011;68167;59.120;37.898;2023-12-04T09:29:11;9.90;;;4.93;;
71696;SDS011;68167;59.120;37.898;2023-12-04T09:31:38;9.07;;;4.90;;
71696;SDS011;68167;59.120;37.898;2023-12-04T09:34:05;9.23;;;4.60;;
71696;SDS011;68167;59.120;37.898;2023-12-04T09:36:31;14.47;;;4.87;;
71696;SDS011;68167;59.120;37.898;2023-12-04T09:38:58;9.80;;;5.00;;
71696;SDS011;68167;59.120;37.898;2023-12-04T09:41:25;9.87;;;4.17;;
71696;SDS011;68167;59.120;37.898;2023-12-04T09:43:52;8.20;;;4.50;;
71696;SDS011;68167;59.120;37.898;2023-12-04T09:46:19;9.97;;;4.30;;
71696;SDS011;68167;59.120;37.898;2023-12-04T09:48:45;9.93;;;4.43;;
71696;SDS011;68167;59.120;37.898;2023-12-04T09:51:12;8.60;;;4.37;;
71696;SDS011;68167;59.120;37.898;2023-12-04T09:53:39;9.37;;;4.67;;
71696;SDS011;68167;59.120;37.898;2023-12-04T09:56:07;8.33;;;4.07;;
71696;SDS011;68167;59.120;37.898;2023-12-04T09:58:35;8.07;;;3.80;;
71696;SDS011;68167;59.120;37.898;2023-12-04T10:01:06;9.17;;;4.27;;
71696;SDS011;68167;59.120;37.898;2023-12-04T10:03:34;7.23;;;4.00;;
71696;SDS011;68167;59.120;37.898;2023-12-04T10:06:02;7.80;;;3.90;;
71696;SDS011;68167;59.120;37.898;2023-12-04T10:08:31;8.40;;;4.20;;
71696;SDS011;68167;59.120;37.898;2023-12-04T10:10:57;8.50;;;4.37;;
71696;SDS011;68167;59.120;37.898;2023-12-04T10:13:24;8.70;;;4.00;;
71696;SDS011;68167;59.120;37.898;2023-12-04T10:15:51;7.47;;;3.63;;
71696;SDS011;68167;59.120;37.898;2023-12-04T10:18:27;8.77;;;3.67;;
71696;SDS011;68167;59.120;37.898;2023-12-04T10:20:56;6.43;;;3.50;;
71696;SDS011;68167;59.120;37.898;2023-12-04T10:23:37;6.83;;;3.33;;
71696;SDS011;68167;59.120;37.898;2023-12-04T10:26:05;7.90;;;3.80;;
71696;SDS011;68167;59.120;37.898;2023-12-04T10:28:34;9.67;;;3.90;;
71696;SDS011;68167;59.120;37.898;2023-12-04T10:31:01;8.87;;;3.80;;
71696;SDS011;68167;59.120;37.898;2023-12-04T10:33:29;9.00;;;3.97;;
71696;SDS011;68167;59.120;37.898;2023-12-04T10:35:57;8.20;;;3.90;;
71696;SDS011;68167;59.120;37.898;2023-12-04T10:38:23;8.07;;;3.90;;
71696;SDS011;68167;59.120;37.898;2023-12-04T10:40:52;6.87;;;3.87;;
71696;SDS011;68167;59.120;37.898;2023-12-04T10:43:19;7.77;;;3.97;;
71696;SDS011;68167;59.120;37.898;2023-12-04T10:45:48;9.20;;;4.30;;
71696;SDS011;68167;59.120;37.898;2023-12-04T10:48:18;7.83;;;3.87;;
71696;SDS011;68167;59.120;37.898;2023-12-04T10:50:48;6.77;;;3.53;;
71696;SDS011;68167;59.120;37.898;2023-12-04T10:53:16;6.90;;;3.80;;
71696;SDS011;68167;59.120;37.898;2023-12-04T10:55:43;7.77;;;3.73;;
71696;SDS011;68167;59.120;37.898;2023-12-04T10:58:11;7.77;;;3.27;;
71696;SDS011;68167;59.120;37.898;2023-12-04T11:00:46;7.80;;;4.00;;
71696;SDS011;68167;59.120;37.898;2023-12-04T11:03:31;8.17;;;4.07;;
71696;SDS011;68167;59.120;37.898;2023-12-04T11:06:02;6.73;;;3.53;;
71696;SDS011;68167;59.120;37.898;2023-12-04T11:08:35;8.43;;;3.77;;
71696;SDS011;68167;59.120;37.898;2023-12-04T11:11:03;7.47;;;3.63;;
71696;SDS011;68167;59.120;37.898;2023-12-04T11:13:34;7.57;;;3.73;;
71696;SDS011;68167;59.120;37.898;2023-12-04T11:16:07;7.90;;;3.50;;
71696;SDS011;68167;59.120;37.898;2023-12-04T11:18:39;5.57;;;3.00;;
71696;SDS011;68167;59.120;37.898;2023-12-04T11:21:10;6.90;;;3.57;;
71696;SDS011;68167;59.120;37.898;2023-12-04T11:23:37;5.47;;;2.67;;
71696;SDS011;68167;59.120;37.898;2023-12-04T11:26:05;5.83;;;3.17;;
71696;SDS011;68167;59.120;37.898;2023-12-04T11:28:33;7.23;;;3.63;;
71696;SDS011;68167;59.120;37.898;2023-12-04T11:31:02;5.47;;;2.73;;
71696;SDS011;68167;59.120;37.898;2023-12-04T11:33:34;7.83;;;3.40;;
71696;SDS011;68167;59.120;37.898;2023-12-04T11:36:08;12.17;;;4.93;;
71696;SDS011;68167;59.120;37.898;2023-12-04T11:38:37;19.33;;;6.30;;
71696;SDS011;68167;59.120;37.898;2023-12-04T11:41:22;17.70;;;6.40;;
71696;SDS011;68167;59.120;37.898;2023-12-04T11:43:50;26.90;;;6.13;;
71696;SDS011;68167;59.120;37.898;2023-12-04T11:46:24;17.90;;;7.10;;
71696;SDS011;68167;59.120;37.898;2023-12-04T11:48:56;11.60;;;5.00;;
71696;SDS011;68167;59.120;37.898;2023-12-04T11:54:10;10.07;;;4.27;;
71696;SDS011;68167;59.120;37.898;2023-12-04T11:56:55;7.93;;;4.20;;
71696;SDS011;68167;59.120;37.898;2023-12-04T11:59:36;18.63;;;5.07;;
71696;SDS011;68167;59.120;37.898;2023-12-04T12:02:07;11.97;;;5.17;;
71696;SDS011;68167;59.120;37.898;2023-12-04T12:04:34;12.90;;;5.10;;
71696;SDS011;68167;59.120;37.898;2023-12-04T12:07:01;14.73;;;5.53;;
71696;SDS011;68167;59.120;37.898;2023-12-04T12:09:32;9.37;;;4.70;;
71696;SDS011;68167;59.120;37.898;2023-12-04T12:11:59;12.13;;;5.23;;
71696;SDS011;68167;59.120;37.898;2023-12-04T12:14:30;8.83;;;4.40;;
71696;SDS011;68167;59.120;37.898;2023-12-04T12:16:58;8.13;;;3.60;;
71696;SDS011;68167;59.120;37.898;2023-12-04T12:19:26;7.77;;;3.63;;
71696;SDS011;68167;59.120;37.898;2023-12-04T12:21:53;7.03;;;3.53;;
71696;SDS011;68167;59.120;37.898;2023-12-04T12:24:20;8.73;;;3.67;;
71696;SDS011;68167;59.120;37.898;2023-12-04T12:26:46;8.93;;;3.77;;
71696;SDS011;68167;59.120;37.898;2023-12-04T12:29:13;9.90;;;4.50;;
71696;SDS011;68167;59.120;37.898;2023-12-04T12:31:40;8.50;;;3.87;;
71696;SDS011;68167;59.120;37.898;2023-12-04T12:34:06;13.23;;;4.77;;
71696;SDS011;68167;59.120;37.898;2023-12-04T12:36:33;9.07;;;4.20;;
71696;SDS011;68167;59.120;37.898;2023-12-04T12:39:00;9.60;;;4.17;;
71696;SDS011;68167;59.120;37.898;2023-12-04T12:41:30;10.07;;;4.60;;
71696;SDS011;68167;59.120;37.898;2023-12-04T12:43:57;10.33;;;4.50;;
71696;SDS011;68167;59.120;37.898;2023-12-04T12:46:29;10.07;;;4.13;;
71696;SDS011;68167;59.120;37.898;2023-12-04T12:48:55;6.50;;;3.43;;
71696;SDS011;68167;59.120;37.898;2023-12-04T12:51:23;7.30;;;3.83;;
71696;SDS011;68167;59.120;37.898;2023-12-04T12:53:50;9.77;;;4.27;;
71696;SDS011;68167;59.120;37.898;2023-12-04T12:56:17;9.17;;;3.83;;
71696;SDS011;68167;59.120;37.898;2023-12-04T12:58:43;9.97;;;4.73;;
71696;SDS011;68167;59.120;37.898;2023-12-04T13:01:10;13.17;;;5.30;;
71696;SDS011;68167;59.120;37.898;2023-12-04T13:03:37;9.43;;;4.57;;
71696;SDS011;68167;59.120;37.898;2023-12-04T13:06:04;15.80;;;6.13;;
71696;SDS011;68167;59.120;37.898;2023-12-04T13:08:31;12.27;;;5.87;;
71696;SDS011;68167;59.120;37.898;2023-12-04T13:10:57;15.20;;;6.37;;
71696;SDS011;68167;59.120;37.898;2023-12-04T13:13:24;15.97;;;6.47;;
71696;SDS011;68167;59.120;37.898;2023-12-04T13:15:52;11.60;;;5.40;;
71696;SDS011;68167;59.120;37.898;2023-12-04T13:18:20;12.90;;;5.87;;
71696;SDS011;68167;59.120;37.898;2023-12-04T13:20:47;13.87;;;6.30;;
71696;SDS011;68167;59.120;37.898;2023-12-04T13:23:13;13.40;;;6.13;;
71696;SDS011;68167;59.120;37.898;2023-12-04T13:25:40;15.97;;;6.87;;
71696;SDS011;68167;59.120;37.898;2023-12-04T13:28:06;16.23;;;5.70;;
71696;SDS011;68167;59.120;37.898;2023-12-04T13:30:33;13.67;;;5.67;;
71696;SDS011;68167;59.120;37.898;2023-12-04T13:33:00;18.00;;;7.37;;
71696;SDS011;68167;59.120;37.898;2023-12-04T13:35:27;16.07;;;7.07;;
71696;SDS011;68167;59.120;37.898;2023-12-04T13:37:53;19.33;;;7.30;;
71696;SDS011;68167;59.120;37.898;2023-12-04T13:40:25;18.20;;;7.37;;
71696;SDS011;68167;59.120;37.898;2023-12-04T13:42:58;11.53;;;5.67;;
71696;SDS011;68167;59.120;37.898;2023-12-04T13:45:43;10.57;;;5.37;;
71696;SDS011;68167;59.120;37.898;2023-12-04T13:48:09;9.03;;;4.30;;
71696;SDS011;68167;59.120;37.898;2023-12-04T13:50:36;11.20;;;4.80;;
71696;SDS011;68167;59.120;37.898;2023-12-04T13:53:03;7.50;;;4.30;;
71696;SDS011;68167;59.120;37.898;2023-12-04T13:55:31;8.80;;;4.07;;
71696;SDS011;68167;59.120;37.898;2023-12-04T13:58:18;12.17;;;4.17;;
71696;SDS011;68167;59.120;37.898;2023-12-04T14:01:05;8.60;;;3.70;;
71696;SDS011;68167;59.120;37.898;2023-12-04T14:03:43;11.20;;;5.03;;
71696;SDS011;68167;59.120;37.898;2023-12-04T14:06:10;8.87;;;4.10;;
71696;SDS011;68167;59.120;37.898;2023-12-04T14:08:37;8.93;;;4.90;;
71696;SDS011;68167;59.120;37.898;2023-12-04T14:11:04;11.40;;;5.30;;
71696;SDS011;68167;59.120;37.898;2023-12-04T14:13:34;8.77;;;4.50;;
71696;SDS011;68167;59.120;37.898;2023-12-04T14:16:01;10.40;;;4.87;;
71696;SDS011;68167;59.120;37.898;2023-12-04T14:18:28;10.27;;;4.10;;
71696;SDS011;68167;59.120;37.898;2023-12-04T14:20:56;16.67;;;5.80;;
71696;SDS011;68167;59.120;37.898;2023-12-04T14:23:23;11.77;;;5.30;;
71696;SDS011;68167;59.120;37.898;2023-12-04T14:25:50;11.27;;;5.10;;
71696;SDS011;68167;59.120;37.898;2023-12-04T14:28:17;13.17;;;5.17;;
71696;SDS011;68167;59.120;37.898;2023-12-04T14:30:43;14.23;;;5.30;;
71696;SDS011;68167;59.120;37.898;2023-12-04T14:33:10;9.87;;;4.53;;
71696;SDS011;68167;59.120;37.898;2023-12-04T14:35:37;10.67;;;4.83;;